createdAt,value
2022-08-04T03:21:59.465Z,79.10
2022-08-04T03:24:45.069Z,81.50
2022-08-04T03:27:21.265Z,83.30
2022-08-04T03:30:04.163Z,84.40
2022-08-04T09:50:35.414Z,75.60
2022-08-04T11:02:01.007Z,65.20
2022-08-04T11:19:42.769Z,31.20
2022-08-04T11:22:17.259Z,32.00
2022-08-04T11:24:47.256Z,31.00
2022-08-04T11:27:17.488Z,30.20
2022-08-04T11:29:51.911Z,30.50
2022-08-04T11:32:21.648Z,29.40
2022-08-04T11:34:54.363Z,28.90
2022-08-04T11:37:25.030Z,28.50
2022-08-04T11:39:54.713Z,28.30
2022-08-04T11:42:24.580Z,28.20
2022-08-04T11:44:53.858Z,28.10
2022-08-04T11:47:30.283Z,28.30
2022-08-04T11:50:03.612Z,28.00
2022-08-04T11:52:32.803Z,27.40
2022-08-04T11:55:03.730Z,27.30
2022-08-04T11:57:35.240Z,27.90
2022-08-04T12:00:04.841Z,27.50
2022-08-04T12:02:50.068Z,25.90
2022-08-04T12:05:35.950Z,24.90
2022-08-04T12:08:12.395Z,24.70
2022-08-04T12:10:43.618Z,24.40
2022-08-04T12:13:22.112Z,23.40
2022-08-04T12:15:53.953Z,23.50
2022-08-04T12:18:23.976Z,23.40
2022-08-04T12:20:58.878Z,23.70
2022-08-04T12:23:31.070Z,23.70
2022-08-04T12:26:01.522Z,23.60
2022-08-04T12:28:46.309Z,23.50
2022-08-04T12:31:21.372Z,23.60
2022-08-04T12:34:05.014Z,23.80
2022-08-04T12:36:38.670Z,24.00
2022-08-04T12:39:10.609Z,23.70
2022-08-04T12:41:40.611Z,23.80
2022-08-04T12:44:36.353Z,24.00
2022-08-04T12:47:26.544Z,25.10
2022-08-04T12:50:00.071Z,25.60
2022-08-04T12:55:21.382Z,24.30
2022-08-04T12:57:50.556Z,24.60
2022-08-04T13:00:29.535Z,24.70
2022-08-04T13:03:05.727Z,24.70
2022-08-04T13:05:38.410Z,24.80
2022-08-04T13:08:08.160Z,25.00
2022-08-04T13:10:39.386Z,25.20
2022-08-04T13:13:12.696Z,25.60
2022-08-04T13:15:47.087Z,25.20
2022-08-04T13:18:29.291Z,25.10
2022-08-04T13:20:58.518Z,25.00
2022-08-04T13:23:28.678Z,25.00
2022-08-04T13:26:44.795Z,24.70
2022-08-04T13:29:16.761Z,24.80
2022-08-04T13:31:52.652Z,25.20
2022-08-04T13:34:21.795Z,25.40
2022-08-04T13:36:50.496Z,25.80
2022-08-04T13:39:20.958Z,25.90
2022-08-04T13:41:54.467Z,26.20
2022-08-04T13:44:30.099Z,26.40
2022-08-04T13:47:00.105Z,27.10
2022-08-04T13:49:42.677Z,27.10
2022-08-04T13:52:16.361Z,27.20
2022-08-04T13:54:47.066Z,27.50
2022-08-04T13:57:16.791Z,27.90
2022-08-04T13:59:49.796Z,28.10
2022-08-04T14:02:26.527Z,28.70
2022-08-04T14:04:57.276Z,28.70
2022-08-04T14:07:26.648Z,28.90
2022-08-04T14:10:03.541Z,28.60
2022-08-04T14:12:46.061Z,28.50
2022-08-04T14:16:01.657Z,28.40
2022-08-04T14:18:23.234Z,28.50
2022-08-04T14:21:01.509Z,28.80
2022-08-04T14:23:33.312Z,29.00
2022-08-04T14:26:14.168Z,29.10
2022-08-04T14:29:25.012Z,29.10
2022-08-04T14:31:31.103Z,29.20
2022-08-04T14:34:03.051Z,29.30
2022-08-04T14:37:13.205Z,29.30
2022-08-04T14:40:18.609Z,29.50
2022-08-04T14:42:43.560Z,29.50
2022-08-04T14:45:12.195Z,29.60
2022-08-04T14:47:41.237Z,29.60
2022-08-04T14:50:10.794Z,29.70
2022-08-04T14:52:39.229Z,29.70
2022-08-04T14:55:17.096Z,29.80
2022-08-04T14:58:33.866Z,29.80
2022-08-04T15:00:34.855Z,30.00
2022-08-04T15:03:03.918Z,30.10
2022-08-04T15:05:55.350Z,30.30
2022-08-04T15:08:19.833Z,30.30
2022-08-04T15:10:47.867Z,30.30
2022-08-04T15:13:17.475Z,30.00
2022-08-04T15:16:06.371Z,29.90
2022-08-04T15:18:34.367Z,29.80
2022-08-04T15:21:02.991Z,29.80
2022-08-04T15:23:38.774Z,29.90
2022-08-04T15:26:10.399Z,30.00
2022-08-04T15:28:40.886Z,30.20
2022-08-04T15:32:03.935Z,30.50
2022-08-04T15:33:57.749Z,30.00
2022-08-04T15:36:32.211Z,30.10
2022-08-04T15:39:06.947Z,30.20
2022-08-04T15:41:38.834Z,30.40
2022-08-04T15:44:31.029Z,30.50
2022-08-04T15:47:12.599Z,30.50
2022-08-04T15:49:40.933Z,30.60
2022-08-04T15:52:12.429Z,30.80
2022-08-04T15:54:42.550Z,30.90
2022-08-04T15:57:52.000Z,30.80
2022-08-04T16:00:21.304Z,31.00
2022-08-04T16:02:49.279Z,31.10
2022-08-04T16:05:36.997Z,31.20
2022-08-04T16:08:12.250Z,31.20
2022-08-04T16:10:41.009Z,31.40
2022-08-04T16:13:09.900Z,31.70
2022-08-04T16:15:39.848Z,31.80
2022-08-04T16:18:14.500Z,31.80
2022-08-04T16:20:55.376Z,31.80
2022-08-04T16:23:53.154Z,32.00
2022-08-04T16:26:35.480Z,32.10
2022-08-04T16:29:03.738Z,32.10
2022-08-04T16:31:36.089Z,32.10
2022-08-04T16:34:36.831Z,32.30
2022-08-04T16:36:59.501Z,32.60
2022-08-04T16:39:27.610Z,32.40
2022-08-04T16:44:52.118Z,67.20
2022-08-04T16:47:40.014Z,69.50
2022-08-04T16:52:42.635Z,32.90
2022-08-04T16:55:10.624Z,34.30
2022-08-04T16:57:39.070Z,34.80
2022-08-04T17:00:08.477Z,35.10
2022-08-04T17:02:37.975Z,35.00
2022-08-04T17:05:07.503Z,35.00
2022-08-04T17:08:02.194Z,35.00
2022-08-04T17:10:38.916Z,35.00
2022-08-04T17:14:02.563Z,35.20
2022-08-04T17:16:13.627Z,35.10
2022-08-04T17:18:48.402Z,35.20
2022-08-04T17:21:19.561Z,35.20
2022-08-04T17:24:14.513Z,35.20
2022-08-04T17:29:43.811Z,35.30
2022-08-04T17:32:17.051Z,35.40
2022-08-04T17:34:49.942Z,35.30
2022-08-04T17:37:39.728Z,34.80
2022-08-04T17:40:10.666Z,34.90
2022-08-04T17:53:12.609Z,53.80
2022-08-04T17:55:42.738Z,75.30
2022-08-04T17:58:14.062Z,75.00
2022-08-04T18:00:51.183Z,68.20
2022-08-04T19:08:11.543Z,73.40
2022-08-04T19:10:34.863Z,67.10
2022-08-04T19:13:02.787Z,75.40
2022-08-04T19:53:43.135Z,78.30
2022-08-04T22:43:32.779Z,78.90
